sensor_id;sensor_type;location;lat;lon;timestamp;temperature;humidity
69776;DHT22;57049;51.450;-2.516;2023-03-23T00:01:08;8.39;90.84
69776;DHT22;57049;51.450;-2.516;2023-03-23T00:03:38;8.33;91.21
69776;DHT22;57049;51.450;-2.516;2023-03-23T00:06:05;8.40;91.02
69776;DHT22;57049;51.450;-2.516;2023-03-23T00:08:36;8.39;91.19
69776;DHT22;57049;51.450;-2.516;2023-03-23T00:11:04;8.42;91.12
69776;DHT22;57049;51.450;-2.516;2023-03-23T00:13:29;8.43;90.97
69776;DHT22;57049;51.450;-2.516;2023-03-23T00:15:55;8.45;90.77
69776;DHT22;57049;51.450;-2.516;2023-03-23T00:18:22;8.37;90.89
69776;DHT22;57049;51.450;-2.516;2023-03-23T00:20:53;8.35;90.91
69776;DHT22;57049;51.450;-2.516;2023-03-23T00:23:23;8.32;91.18
69776;DHT22;57049;51.450;-2.516;2023-03-23T00:25:54;8.25;91.36
69776;DHT22;57049;51.450;-2.516;2023-03-23T00:28:22;8.32;91.26
69776;DHT22;57049;51.450;-2.516;2023-03-23T00:30:59;8.25;91.46
69776;DHT22;57049;51.450;-2.516;2023-03-23T00:33:27;8.25;91.32
69776;DHT22;57049;51.450;-2.516;2023-03-23T00:35:54;8.26;91.31
69776;DHT22;57049;51.450;-2.516;2023-03-23T00:38:23;8.28;91.18
69776;DHT22;57049;51.450;-2.516;2023-03-23T00:40:50;8.30;90.95
69776;DHT22;57049;51.450;-2.516;2023-03-23T00:43:17;8.33;90.84
69776;DHT22;57049;51.450;-2.516;2023-03-23T00:45:44;8.29;90.69
69776;DHT22;57049;51.450;-2.516;2023-03-23T00:48:11;8.28;90.65
69776;DHT22;57049;51.450;-2.516;2023-03-23T00:50:39;8.25;90.52
69776;DHT22;57049;51.450;-2.516;2023-03-23T00:53:05;8.21;90.47
69776;DHT22;57049;51.450;-2.516;2023-03-23T00:55:30;8.21;90.21
69776;DHT22;57049;51.450;-2.516;2023-03-23T00:57:56;8.19;89.98
69776;DHT22;57049;51.450;-2.516;2023-03-23T01:00:22;8.17;89.51
69776;DHT22;57049;51.450;-2.516;2023-03-23T01:02:49;8.13;89.61
69776;DHT22;57049;51.450;-2.516;2023-03-23T01:05:17;8.13;89.67
69776;DHT22;57049;51.450;-2.516;2023-03-23T01:07:42;8.07;89.51
69776;DHT22;57049;51.450;-2.516;2023-03-23T01:10:10;8.06;89.28
69776;DHT22;57049;51.450;-2.516;2023-03-23T01:12:38;8.02;89.39
69776;DHT22;57049;51.450;-2.516;2023-03-23T01:15:04;7.96;89.52
69776;DHT22;57049;51.450;-2.516;2023-03-23T01:17:31;7.91;89.61
69776;DHT22;57049;51.450;-2.516;2023-03-23T01:19:57;7.86;89.90
69776;DHT22;57049;51.450;-2.516;2023-03-23T01:22:23;7.85;90.12
69776;DHT22;57049;51.450;-2.516;2023-03-23T01:24:49;7.82;90.42
69776;DHT22;57049;51.450;-2.516;2023-03-23T01:27:14;7.81;90.66
69776;DHT22;57049;51.450;-2.516;2023-03-23T01:29:40;7.73;91.25
69776;DHT22;57049;51.450;-2.516;2023-03-23T01:32:05;7.67;91.64
69776;DHT22;57049;51.450;-2.516;2023-03-23T01:34:31;7.61;91.91
69776;DHT22;57049;51.450;-2.516;2023-03-23T01:36:57;7.50;92.62
69776;DHT22;57049;51.450;-2.516;2023-03-23T01:39:22;7.48;93.13
69776;DHT22;57049;51.450;-2.516;2023-03-23T01:41:48;7.46;93.50
69776;DHT22;57049;51.450;-2.516;2023-03-23T01:46:42;7.41;94.33
69776;DHT22;57049;51.450;-2.516;2023-03-23T01:49:22;7.34;94.45
69776;DHT22;57049;51.450;-2.516;2023-03-23T01:51:53;7.28;94.78
69776;DHT22;57049;51.450;-2.516;2023-03-23T01:54:22;7.43;94.02
69776;DHT22;57049;51.450;-2.516;2023-03-23T01:56:59;7.48;93.50
69776;DHT22;57049;51.450;-2.516;2023-03-23T01:59:27;7.55;93.01
69776;DHT22;57049;51.450;-2.516;2023-03-23T02:01:54;7.50;92.90
69776;DHT22;57049;51.450;-2.516;2023-03-23T02:04:22;7.53;92.28
69776;DHT22;57049;51.450;-2.516;2023-03-23T02:06:48;7.55;91.95
69776;DHT22;57049;51.450;-2.516;2023-03-23T02:09:15;7.53;91.83
69776;DHT22;57049;51.450;-2.516;2023-03-23T02:11:43;7.51;91.82
69776;DHT22;57049;51.450;-2.516;2023-03-23T02:14:09;7.54;91.55
69776;DHT22;57049;51.450;-2.516;2023-03-23T02:16:51;7.50;91.52
69776;DHT22;57049;51.450;-2.516;2023-03-23T02:36:04;7.37;92.26
69776;DHT22;57049;51.450;-2.516;2023-03-23T02:38:43;7.37;92.31
69776;DHT22;57049;51.450;-2.516;2023-03-23T02:41:10;7.31;92.43
69776;DHT22;57049;51.450;-2.516;2023-03-23T02:43:40;7.28;92.58
69776;DHT22;57049;51.450;-2.516;2023-03-23T02:46:08;7.24;92.63
69776;DHT22;57049;51.450;-2.516;2023-03-23T02:48:36;7.20;92.88
69776;DHT22;57049;51.450;-2.516;2023-03-23T02:51:03;7.22;92.78
69776;DHT22;57049;51.450;-2.516;2023-03-23T02:53:30;7.16;93.04
69776;DHT22;57049;51.450;-2.516;2023-03-23T02:55:57;7.24;92.75
69776;DHT22;57049;51.450;-2.516;2023-03-23T02:58:24;7.24;92.63
69776;DHT22;57049;51.450;-2.516;2023-03-23T03:00:50;7.17;92.55
69776;DHT22;57049;51.450;-2.516;2023-03-23T03:03:21;7.06;92.81
69776;DHT22;57049;51.450;-2.516;2023-03-23T03:08:46;7.06;92.83
69776;DHT22;57049;51.450;-2.516;2023-03-23T03:11:16;7.04;92.76
69776;DHT22;57049;51.450;-2.516;2023-03-23T03:14:03;7.04;92.72
69776;DHT22;57049;51.450;-2.516;2023-03-23T03:16:43;7.13;92.40
69776;DHT22;57049;51.450;-2.516;2023-03-23T03:19:15;7.13;92.05
69776;DHT22;57049;51.450;-2.516;2023-03-23T03:21:44;7.14;91.99
69776;DHT22;57049;51.450;-2.516;2023-03-23T03:24:14;7.14;91.96
69776;DHT22;57049;51.450;-2.516;2023-03-23T03:26:45;7.20;91.60
69776;DHT22;57049;51.450;-2.516;2023-03-23T03:29:15;7.16;91.61
69776;DHT22;57049;51.450;-2.516;2023-03-23T03:31:44;7.19;91.31
69776;DHT22;57049;51.450;-2.516;2023-03-23T03:34:11;7.19;91.15
69776;DHT22;57049;51.450;-2.516;2023-03-23T03:36:37;7.17;90.98
69776;DHT22;57049;51.450;-2.516;2023-03-23T03:39:05;7.16;90.77
69776;DHT22;57049;51.450;-2.516;2023-03-23T03:41:33;7.07;90.83
69776;DHT22;57049;51.450;-2.516;2023-03-23T03:43:59;7.14;90.80
69776;DHT22;57049;51.450;-2.516;2023-03-23T03:46:24;7.09;90.83
69776;DHT22;57049;51.450;-2.516;2023-03-23T03:48:52;7.03;90.86
69776;DHT22;57049;51.450;-2.516;2023-03-23T03:51:18;7.07;90.87
69776;DHT22;57049;51.450;-2.516;2023-03-23T03:53:43;7.02;90.86
69776;DHT22;57049;51.450;-2.516;2023-03-23T03:56:09;7.04;90.66
69776;DHT22;57049;51.450;-2.516;2023-03-23T03:58:34;7.07;90.55
69776;DHT22;57049;51.450;-2.516;2023-03-23T04:01:02;7.07;90.33
69776;DHT22;57049;51.450;-2.516;2023-03-23T04:03:27;7.03;90.59
69776;DHT22;57049;51.450;-2.516;2023-03-23T04:05:54;6.96;90.87
69776;DHT22;57049;51.450;-2.516;2023-03-23T04:08:21;6.89;91.09
69776;DHT22;57049;51.450;-2.516;2023-03-23T04:10:47;6.88;91.09
69776;DHT22;57049;51.450;-2.516;2023-03-23T04:13:13;6.88;91.19
69776;DHT22;57049;51.450;-2.516;2023-03-23T04:15:39;6.92;91.01
69776;DHT22;57049;51.450;-2.516;2023-03-23T04:18:04;6.82;91.33
69776;DHT22;57049;51.450;-2.516;2023-03-23T04:20:31;6.76;91.28
69776;DHT22;57049;51.450;-2.516;2023-03-23T04:22:57;6.80;91.42
69776;DHT22;57049;51.450;-2.516;2023-03-23T04:25:22;6.79;91.39
69776;DHT22;57049;51.450;-2.516;2023-03-23T04:27:49;6.79;91.37
69776;DHT22;57049;51.450;-2.516;2023-03-23T04:30:20;6.86;91.15
69776;DHT22;57049;51.450;-2.516;2023-03-23T04:32:47;6.86;91.03
69776;DHT22;57049;51.450;-2.516;2023-03-23T04:35:16;6.79;91.36
69776;DHT22;57049;51.450;-2.516;2023-03-23T04:37:42;6.68;91.63
69776;DHT22;57049;51.450;-2.516;2023-03-23T04:40:09;6.65;91.97
69776;DHT22;57049;51.450;-2.516;2023-03-23T04:42:39;6.62;92.48
69776;DHT22;57049;51.450;-2.516;2023-03-23T04:45:06;6.52;92.66
69776;DHT22;57049;51.450;-2.516;2023-03-23T04:47:34;6.46;92.81
69776;DHT22;57049;51.450;-2.516;2023-03-23T04:50:07;6.49;93.25
69776;DHT22;57049;51.450;-2.516;2023-03-23T04:52:33;6.46;93.47
69776;DHT22;57049;51.450;-2.516;2023-03-23T04:54:58;6.35;93.92
69776;DHT22;57049;51.450;-2.516;2023-03-23T04:57:24;6.25;94.10
69776;DHT22;57049;51.450;-2.516;2023-03-23T04:59:53;6.20;94.41
69776;DHT22;57049;51.450;-2.516;2023-03-23T05:02:18;6.28;94.66
69776;DHT22;57049;51.450;-2.516;2023-03-23T05:04:44;6.28;94.88
69776;DHT22;57049;51.450;-2.516;2023-03-23T05:07:10;6.31;95.15
69776;DHT22;57049;51.450;-2.516;2023-03-23T05:09:36;6.32;95.28
69776;DHT22;57049;51.450;-2.516;2023-03-23T05:12:06;6.31;95.59
69776;DHT22;57049;51.450;-2.516;2023-03-23T05:14:32;6.39;95.71
69776;DHT22;57049;51.450;-2.516;2023-03-23T05:16:58;6.29;95.92
69776;DHT22;57049;51.450;-2.516;2023-03-23T05:19:23;6.39;95.93
69776;DHT22;57049;51.450;-2.516;2023-03-23T05:21:50;6.32;96.49
69776;DHT22;57049;51.450;-2.516;2023-03-23T05:24:16;6.27;96.66
69776;DHT22;57049;51.450;-2.516;2023-03-23T05:26:41;6.27;96.71
69776;DHT22;57049;51.450;-2.516;2023-03-23T05:29:06;6.31;97.12
69776;DHT22;57049;51.450;-2.516;2023-03-23T05:31:32;6.37;97.14
69776;DHT22;57049;51.450;-2.516;2023-03-23T05:33:57;6.32;97.37
69776;DHT22;57049;51.450;-2.516;2023-03-23T05:36:23;6.44;97.31
69776;DHT22;57049;51.450;-2.516;2023-03-23T05:38:52;6.45;97.27
69776;DHT22;57049;51.450;-2.516;2023-03-23T05:41:18;6.59;97.33
69776;DHT22;57049;51.450;-2.516;2023-03-23T05:43:43;6.51;97.28
69776;DHT22;57049;51.450;-2.516;2023-03-23T05:46:09;6.56;97.34
69776;DHT22;57049;51.450;-2.516;2023-03-23T05:48:34;6.59;97.38
69776;DHT22;57049;51.450;-2.516;2023-03-23T05:51:00;6.59;97.43
69776;DHT22;57049;51.450;-2.516;2023-03-23T05:53:25;6.72;97.37
69776;DHT22;57049;51.450;-2.516;2023-03-23T05:55:51;6.68;97.46
69776;DHT22;57049;51.450;-2.516;2023-03-23T05:58:18;6.79;97.35
69776;DHT22;57049;51.450;-2.516;2023-03-23T06:00:43;6.83;97.32
69776;DHT22;57049;51.450;-2.516;2023-03-23T06:03:10;6.90;97.20
69776;DHT22;57049;51.450;-2.516;2023-03-23T06:05:35;7.09;96.94
69776;DHT22;57049;51.450;-2.516;2023-03-23T06:08:01;7.17;96.89
69776;DHT22;57049;51.450;-2.516;2023-03-23T06:10:27;7.28;96.86
69776;DHT22;57049;51.450;-2.516;2023-03-23T06:12:53;7.33;96.79
69776;DHT22;57049;51.450;-2.516;2023-03-23T06:15:18;7.44;96.70
69776;DHT22;57049;51.450;-2.516;2023-03-23T06:17:44;7.46;96.71
69776;DHT22;57049;51.450;-2.516;2023-03-23T06:20:10;7.48;96.64
69776;DHT22;57049;51.450;-2.516;2023-03-23T06:22:37;7.44;96.73
69776;DHT22;57049;51.450;-2.516;2023-03-23T06:25:04;7.43;96.75
69776;DHT22;57049;51.450;-2.516;2023-03-23T06:27:30;7.50;96.78
69776;DHT22;57049;51.450;-2.516;2023-03-23T06:29:55;7.48;96.90
69776;DHT22;57049;51.450;-2.516;2023-03-23T06:32:22;7.58;97.02
69776;DHT22;57049;51.450;-2.516;2023-03-23T06:34:49;7.75;96.95
69776;DHT22;57049;51.450;-2.516;2023-03-23T06:37:14;7.85;96.83
69776;DHT22;57049;51.450;-2.516;2023-03-23T06:39:41;7.89;96.77
69776;DHT22;57049;51.450;-2.516;2023-03-23T06:42:10;7.94;96.71
69776;DHT22;57049;51.450;-2.516;2023-03-23T06:44:38;8.12;96.60
69776;DHT22;57049;51.450;-2.516;2023-03-23T06:47:04;8.32;96.32
69776;DHT22;57049;51.450;-2.516;2023-03-23T06:49:29;8.47;96.16
69776;DHT22;57049;51.450;-2.516;2023-03-23T06:51:55;8.54;95.81
69776;DHT22;57049;51.450;-2.516;2023-03-23T06:54:21;8.52;95.75
69776;DHT22;57049;51.450;-2.516;2023-03-23T06:56:47;8.46;95.74
69776;DHT22;57049;51.450;-2.516;2023-03-23T06:59:12;8.50;95.70
69776;DHT22;57049;51.450;-2.516;2023-03-23T07:01:39;8.63;95.51
69776;DHT22;57049;51.450;-2.516;2023-03-23T07:04:05;8.68;95.39
69776;DHT22;57049;51.450;-2.516;2023-03-23T07:06:31;8.83;95.14
69776;DHT22;57049;51.450;-2.516;2023-03-23T07:08:56;8.85;95.05
69776;DHT22;57049;51.450;-2.516;2023-03-23T07:11:22;8.94;94.68
69776;DHT22;57049;51.450;-2.516;2023-03-23T07:13:47;9.07;94.42
69776;DHT22;57049;51.450;-2.516;2023-03-23T07:16:15;9.18;93.97
69776;DHT22;57049;51.450;-2.516;2023-03-23T07:18:41;9.32;93.50
69776;DHT22;57049;51.450;-2.516;2023-03-23T07:21:06;9.59;92.88
69776;DHT22;57049;51.450;-2.516;2023-03-23T07:23:32;9.79;91.55
69776;DHT22;57049;51.450;-2.516;2023-03-23T07:25:57;9.96;91.03
69776;DHT22;57049;51.450;-2.516;2023-03-23T07:28:23;10.09;90.44
69776;DHT22;57049;51.450;-2.516;2023-03-23T07:30:48;10.29;89.76
69776;DHT22;57049;51.450;-2.516;2023-03-23T07:33:14;10.50;89.07
69776;DHT22;57049;51.450;-2.516;2023-03-23T07:35:40;10.58;88.27
69776;DHT22;57049;51.450;-2.516;2023-03-23T07:38:06;10.62;88.15
69776;DHT22;57049;51.450;-2.516;2023-03-23T07:40:32;10.51;88.17
69776;DHT22;57049;51.450;-2.516;2023-03-23T07:43:02;10.44;88.42
69776;DHT22;57049;51.450;-2.516;2023-03-23T07:45:28;10.45;88.24
69776;DHT22;57049;51.450;-2.516;2023-03-23T07:47:54;10.55;88.21
69776;DHT22;57049;51.450;-2.516;2023-03-23T07:50:19;10.55;88.12
69776;DHT22;57049;51.450;-2.516;2023-03-23T07:52:50;10.68;87.85
69776;DHT22;57049;51.450;-2.516;2023-03-23T07:55:16;10.69;87.72
69776;DHT22;57049;51.450;-2.516;2023-03-23T07:57:45;10.75;87.70
69776;DHT22;57049;51.450;-2.516;2023-03-23T08:00:13;10.89;87.36
69776;DHT22;57049;51.450;-2.516;2023-03-23T08:02:44;10.95;87.70
69776;DHT22;57049;51.450;-2.516;2023-03-23T08:05:10;11.06;87.30
69776;DHT22;57049;51.450;-2.516;2023-03-23T08:07:35;11.01;87.31
69776;DHT22;57049;51.450;-2.516;2023-03-23T08:10:01;10.99;87.13
69776;DHT22;57049;51.450;-2.516;2023-03-23T08:12:27;10.94;87.66
69776;DHT22;57049;51.450;-2.516;2023-03-23T08:14:52;11.09;88.11
69776;DHT22;57049;51.450;-2.516;2023-03-23T08:17:19;11.09;87.40
69776;DHT22;57049;51.450;-2.516;2023-03-23T08:19:44;11.08;87.39
69776;DHT22;57049;51.450;-2.516;2023-03-23T08:22:11;11.15;87.34
69776;DHT22;57049;51.450;-2.516;2023-03-23T08:24:37;11.23;87.33
69776;DHT22;57049;51.450;-2.516;2023-03-23T08:27:03;11.37;87.67
69776;DHT22;57049;51.450;-2.516;2023-03-23T08:29:29;11.42;87.29
69776;DHT22;57049;51.450;-2.516;2023-03-23T08:31:54;11.46;87.06
69776;DHT22;57049;51.450;-2.516;2023-03-23T08:34:20;11.47;87.39
69776;DHT22;57049;51.450;-2.516;2023-03-23T08:36:46;11.50;87.52
69776;DHT22;57049;51.450;-2.516;2023-03-23T08:39:13;11.67;87.50
69776;DHT22;57049;51.450;-2.516;2023-03-23T08:41:40;11.94;86.23
69776;DHT22;57049;51.450;-2.516;2023-03-23T08:44:05;12.08;85.82
69776;DHT22;57049;51.450;-2.516;2023-03-23T08:46:31;12.08;86.09
69776;DHT22;57049;51.450;-2.516;2023-03-23T08:48:56;12.25;86.25
69776;DHT22;57049;51.450;-2.516;2023-03-23T08:51:22;12.41;85.97
69776;DHT22;57049;51.450;-2.516;2023-03-23T08:53:48;12.42;84.26
69776;DHT22;57049;51.450;-2.516;2023-03-23T08:56:13;12.41;84.68
69776;DHT22;57049;51.450;-2.516;2023-03-23T08:58:39;12.31;84.77
69776;DHT22;57049;51.450;-2.516;2023-03-23T09:01:06;12.18;85.09
69776;DHT22;57049;51.450;-2.516;2023-03-23T09:03:33;12.17;85.15
69776;DHT22;57049;51.450;-2.516;2023-03-23T09:06:05;12.32;85.22
69776;DHT22;57049;51.450;-2.516;2023-03-23T09:08:31;12.28;85.21
69776;DHT22;57049;51.450;-2.516;2023-03-23T09:11:00;12.28;85.70
69776;DHT22;57049;51.450;-2.516;2023-03-23T09:13:26;12.42;85.54
69776;DHT22;57049;51.450;-2.516;2023-03-23T09:15:51;12.35;85.18
69776;DHT22;57049;51.450;-2.516;2023-03-23T09:18:18;12.41;85.62
69776;DHT22;57049;51.450;-2.516;2023-03-23T09:20:44;12.56;85.21
69776;DHT22;57049;51.450;-2.516;2023-03-23T09:23:10;12.78;84.79
69776;DHT22;57049;51.450;-2.516;2023-03-23T09:25:38;13.07;83.44
69776;DHT22;57049;51.450;-2.516;2023-03-23T09:28:04;13.24;83.56
69776;DHT22;57049;51.450;-2.516;2023-03-23T09:30:32;13.40;82.29
69776;DHT22;57049;51.450;-2.516;2023-03-23T09:33:00;13.30;81.64
69776;DHT22;57049;51.450;-2.516;2023-03-23T09:35:29;13.14;82.33
69776;DHT22;57049;51.450;-2.516;2023-03-23T09:37:57;13.06;81.48
69776;DHT22;57049;51.450;-2.516;2023-03-23T09:40:32;12.96;82.14
69776;DHT22;57049;51.450;-2.516;2023-03-23T09:51:51;12.90;82.01
69776;DHT22;57049;51.450;-2.516;2023-03-23T09:54:34;12.85;82.10
69776;DHT22;57049;51.450;-2.516;2023-03-23T09:57:01;12.89;81.93
69776;DHT22;57049;51.450;-2.516;2023-03-23T09:59:34;12.90;80.39
69776;DHT22;57049;51.450;-2.516;2023-03-23T10:02:24;12.97;80.94
69776;DHT22;57049;51.450;-2.516;2023-03-23T10:04:54;12.95;80.78
69776;DHT22;57049;51.450;-2.516;2023-03-23T10:07:22;12.93;79.95
69776;DHT22;57049;51.450;-2.516;2023-03-23T10:09:56;13.06;80.83
69776;DHT22;57049;51.450;-2.516;2023-03-23T10:12:49;13.00;78.87
69776;DHT22;57049;51.450;-2.516;2023-03-23T10:15:33;13.13;79.25
69776;DHT22;57049;51.450;-2.516;2023-03-23T10:18:07;13.30;78.58
69776;DHT22;57049;51.450;-2.516;2023-03-23T10:26:02;14.02;76.65
69776;DHT22;57049;51.450;-2.516;2023-03-23T10:28:49;13.98;77.42
69776;DHT22;57049;51.450;-2.516;2023-03-23T10:31:48;13.81;76.73
69776;DHT22;57049;51.450;-2.516;2023-03-23T10:34:44;13.70;77.59
69776;DHT22;57049;51.450;-2.516;2023-03-23T10:37:23;13.72;77.57
69776;DHT22;57049;51.450;-2.516;2023-03-23T10:39:55;14.13;77.65
69776;DHT22;57049;51.450;-2.516;2023-03-23T10:42:35;14.33;76.37
69776;DHT22;57049;51.450;-2.516;2023-03-23T10:45:20;14.44;76.05
69776;DHT22;57049;51.450;-2.516;2023-03-23T10:48:01;14.44;76.27
69776;DHT22;57049;51.450;-2.516;2023-03-23T10:50:33;14.32;76.32
69776;DHT22;57049;51.450;-2.516;2023-03-23T10:53:00;14.42;75.72
69776;DHT22;57049;51.450;-2.516;2023-03-23T10:55:38;14.40;76.42
69776;DHT22;57049;51.450;-2.516;2023-03-23T10:58:07;14.13;76.33
69776;DHT22;57049;51.450;-2.516;2023-03-23T11:00:40;13.97;77.19
69776;DHT22;57049;51.450;-2.516;2023-03-23T11:03:21;14.05;76.90
69776;DHT22;57049;51.450;-2.516;2023-03-23T11:05:59;13.88;76.18
69776;DHT22;57049;51.450;-2.516;2023-03-23T11:08:28;14.04;76.61
69776;DHT22;57049;51.450;-2.516;2023-03-23T11:13:49;14.15;74.31
69776;DHT22;57049;51.450;-2.516;2023-03-23T11:16:27;14.25;75.14
69776;DHT22;57049;51.450;-2.516;2023-03-23T11:18:53;14.29;74.65
69776;DHT22;57049;51.450;-2.516;2023-03-23T11:21:21;14.30;75.67
69776;DHT22;57049;51.450;-2.516;2023-03-23T11:23:53;14.26;74.07
69776;DHT22;57049;51.450;-2.516;2023-03-23T11:26:23;14.18;73.81
69776;DHT22;57049;51.450;-2.516;2023-03-23T11:31:23;14.04;74.99
69776;DHT22;57049;51.450;-2.516;2023-03-23T11:33:58;14.11;74.74
69776;DHT22;57049;51.450;-2.516;2023-03-23T11:36:37;14.09;75.36
69776;DHT22;57049;51.450;-2.516;2023-03-23T11:39:19;13.83;75.70
69776;DHT22;57049;51.450;-2.516;2023-03-23T11:41:46;13.78;76.37
69776;DHT22;57049;51.450;-2.516;2023-03-23T11:44:12;14.02;75.63
69776;DHT22;57049;51.450;-2.516;2023-03-23T11:47:07;14.26;75.75
69776;DHT22;57049;51.450;-2.516;2023-03-23T11:52:24;14.72;75.91
69776;DHT22;57049;51.450;-2.516;2023-03-23T11:55:07;15.11;74.62
69776;DHT22;57049;51.450;-2.516;2023-03-23T11:57:34;15.18;72.92
69776;DHT22;57049;51.450;-2.516;2023-03-23T11:59:59;15.10;72.33
69776;DHT22;57049;51.450;-2.516;2023-03-23T12:10:39;14.15;73.81
69776;DHT22;57049;51.450;-2.516;2023-03-23T12:16:14;14.12;75.50
69776;DHT22;57049;51.450;-2.516;2023-03-23T12:18:51;14.30;75.04
69776;DHT22;57049;51.450;-2.516;2023-03-23T12:21:50;14.43;74.64
69776;DHT22;57049;51.450;-2.516;2023-03-23T12:27:04;14.63;73.53
69776;DHT22;57049;51.450;-2.516;2023-03-23T12:29:51;14.64;73.06
69776;DHT22;57049;51.450;-2.516;2023-03-23T12:40:57;15.14;72.77
69776;DHT22;57049;51.450;-2.516;2023-03-23T12:43:46;15.03;72.85
69776;DHT22;57049;51.450;-2.516;2023-03-23T12:51:59;15.08;73.50
69776;DHT22;57049;51.450;-2.516;2023-03-23T12:54:31;14.88;73.84
69776;DHT22;57049;51.450;-2.516;2023-03-23T12:57:19;14.50;74.93
69776;DHT22;57049;51.450;-2.516;2023-03-23T13:00:16;14.32;75.90
69776;DHT22;57049;51.450;-2.516;2023-03-23T13:02:53;14.15;76.90
69776;DHT22;57049;51.450;-2.516;2023-03-23T13:08:15;14.23;78.52
69776;DHT22;57049;51.450;-2.516;2023-03-23T13:10:47;14.25;78.43
69776;DHT22;57049;51.450;-2.516;2023-03-23T13:13:27;14.43;78.53
69776;DHT22;57049;51.450;-2.516;2023-03-23T13:21:10;14.36;76.74
69776;DHT22;57049;51.450;-2.516;2023-03-23T13:23:43;14.46;77.03
69776;DHT22;57049;51.450;-2.516;2023-03-23T13:26:22;14.36;77.46
69776;DHT22;57049;51.450;-2.516;2023-03-23T13:31:30;14.52;77.69
69776;DHT22;57049;51.450;-2.516;2023-03-23T13:34:21;14.39;77.59
69776;DHT22;57049;51.450;-2.516;2023-03-23T13:36:55;14.40;77.98
69776;DHT22;57049;51.450;-2.516;2023-03-23T13:39:27;14.39;78.08
69776;DHT22;57049;51.450;-2.516;2023-03-23T13:47:16;13.57;81.08
69776;DHT22;57049;51.450;-2.516;2023-03-23T13:49:52;13.30;84.47
69776;DHT22;57049;51.450;-2.516;2023-03-23T13:52:23;12.99;86.88
69776;DHT22;57049;51.450;-2.516;2023-03-23T13:54:50;12.90;87.86
69776;DHT22;57049;51.450;-2.516;2023-03-23T13:57:37;12.66;88.49
69776;DHT22;57049;51.450;-2.516;2023-03-23T14:05:44;12.20;91.18
69776;DHT22;57049;51.450;-2.516;2023-03-23T14:18:23;12.07;91.56
69776;DHT22;57049;51.450;-2.516;2023-03-23T14:20:50;12.04;91.64
69776;DHT22;57049;51.450;-2.516;2023-03-23T14:23:17;12.08;91.99
69776;DHT22;57049;51.450;-2.516;2023-03-23T14:25:43;12.11;91.96
69776;DHT22;57049;51.450;-2.516;2023-03-23T14:28:20;11.94;92.56
69776;DHT22;57049;51.450;-2.516;2023-03-23T14:30:52;11.93;92.82
69776;DHT22;57049;51.450;-2.516;2023-03-23T14:33:19;11.73;91.81
69776;DHT22;57049;51.450;-2.516;2023-03-23T14:35:45;11.59;91.34
69776;DHT22;57049;51.450;-2.516;2023-03-23T14:38:20;11.50;91.58
69776;DHT22;57049;51.450;-2.516;2023-03-23T14:40:47;11.40;92.33
69776;DHT22;57049;51.450;-2.516;2023-03-23T14:43:16;11.26;92.78
69776;DHT22;57049;51.450;-2.516;2023-03-23T14:45:42;11.12;93.46
69776;DHT22;57049;51.450;-2.516;2023-03-23T14:48:11;11.03;93.71
69776;DHT22;57049;51.450;-2.516;2023-03-23T14:50:58;11.01;94.04
69776;DHT22;57049;51.450;-2.516;2023-03-23T14:53:39;10.98;93.67
69776;DHT22;57049;51.450;-2.516;2023-03-23T14:56:13;10.95;93.95
69776;DHT22;57049;51.450;-2.516;2023-03-23T14:58:47;10.92;93.83
69776;DHT22;57049;51.450;-2.516;2023-03-23T15:01:27;11.02;93.56
69776;DHT22;57049;51.450;-2.516;2023-03-23T15:04:03;10.98;93.72
69776;DHT22;57049;51.450;-2.516;2023-03-23T15:06:32;11.05;93.69
69776;DHT22;57049;51.450;-2.516;2023-03-23T15:09:01;10.95;93.57
69776;DHT22;57049;51.450;-2.516;2023-03-23T15:11:30;10.96;93.87
69776;DHT22;57049;51.450;-2.516;2023-03-23T15:13:58;10.94;93.94
69776;DHT22;57049;51.450;-2.516;2023-03-23T15:16:30;10.94;93.81
69776;DHT22;57049;51.450;-2.516;2023-03-23T15:19:05;10.92;94.12
69776;DHT22;57049;51.450;-2.516;2023-03-23T15:21:32;10.82;94.46
69776;DHT22;57049;51.450;-2.516;2023-03-23T15:24:00;10.82;94.62
69776;DHT22;57049;51.450;-2.516;2023-03-23T15:26:40;10.82;94.66
69776;DHT22;57049;51.450;-2.516;2023-03-23T15:29:21;10.71;95.57
69776;DHT22;57049;51.450;-2.516;2023-03-23T15:31:53;10.69;95.34
69776;DHT22;57049;51.450;-2.516;2023-03-23T15:34:35;10.69;95.64
69776;DHT22;57049;51.450;-2.516;2023-03-23T15:37:34;10.69;95.58
69776;DHT22;57049;51.450;-2.516;2023-03-23T15:40:02;10.71;95.89
69776;DHT22;57049;51.450;-2.516;2023-03-23T15:42:33;10.74;96.05
69776;DHT22;57049;51.450;-2.516;2023-03-23T15:47:38;10.82;96.26
69776;DHT22;57049;51.450;-2.516;2023-03-23T15:50:19;10.85;96.24
69776;DHT22;57049;51.450;-2.516;2023-03-23T15:52:45;10.85;96.47
69776;DHT22;57049;51.450;-2.516;2023-03-23T15:55:29;10.82;96.74
69776;DHT22;57049;51.450;-2.516;2023-03-23T15:58:09;10.88;96.40
69776;DHT22;57049;51.450;-2.516;2023-03-23T16:00:35;10.88;96.35
69776;DHT22;57049;51.450;-2.516;2023-03-23T16:03:04;10.85;96.61
69776;DHT22;57049;51.450;-2.516;2023-03-23T16:05:30;10.82;96.64
69776;DHT22;57049;51.450;-2.516;2023-03-23T16:07:56;10.84;96.60
69776;DHT22;57049;51.450;-2.516;2023-03-23T16:10:23;10.79;96.85
69776;DHT22;57049;51.450;-2.516;2023-03-23T16:12:49;10.79;96.79
69776;DHT22;57049;51.450;-2.516;2023-03-23T16:15:15;10.67;97.26
69776;DHT22;57049;51.450;-2.516;2023-03-23T16:17:41;10.61;97.70
69776;DHT22;57049;51.450;-2.516;2023-03-23T16:22:40;10.75;97.73
69776;DHT22;57049;51.450;-2.516;2023-03-23T16:25:06;10.81;97.57
69776;DHT22;57049;51.450;-2.516;2023-03-23T16:27:32;10.78;97.55
69776;DHT22;57049;51.450;-2.516;2023-03-23T16:29:57;10.75;97.75
69776;DHT22;57049;51.450;-2.516;2023-03-23T16:32:25;10.79;97.36
69776;DHT22;57049;51.450;-2.516;2023-03-23T16:34:50;10.76;97.60
69776;DHT22;57049;51.450;-2.516;2023-03-23T16:37:16;10.78;97.20
69776;DHT22;57049;51.450;-2.516;2023-03-23T16:39:41;10.75;97.08
69776;DHT22;57049;51.450;-2.516;2023-03-23T16:42:07;10.81;97.20
69776;DHT22;57049;51.450;-2.516;2023-03-23T16:44:33;10.85;97.17
69776;DHT22;57049;51.450;-2.516;2023-03-23T16:46:58;10.85;97.09
69776;DHT22;57049;51.450;-2.516;2023-03-23T16:49:23;10.79;97.17
69776;DHT22;57049;51.450;-2.516;2023-03-23T16:51:49;10.84;97.09
69776;DHT22;57049;51.450;-2.516;2023-03-23T16:54:14;10.84;97.07
69776;DHT22;57049;51.450;-2.516;2023-03-23T16:56:40;10.78;97.19
69776;DHT22;57049;51.450;-2.516;2023-03-23T16:59:10;10.74;97.33
69776;DHT22;57049;51.450;-2.516;2023-03-23T17:01:35;10.64;97.52
69776;DHT22;57049;51.450;-2.516;2023-03-23T17:04:00;10.65;97.45
69776;DHT22;57049;51.450;-2.516;2023-03-23T17:06:26;10.67;97.56
69776;DHT22;57049;51.450;-2.516;2023-03-23T17:08:51;10.47;97.23
69776;DHT22;57049;51.450;-2.516;2023-03-23T17:11:17;9.90;95.50
69776;DHT22;57049;51.450;-2.516;2023-03-23T17:13:42;9.82;95.32
69776;DHT22;57049;51.450;-2.516;2023-03-23T17:16:08;9.75;95.41
69776;DHT22;57049;51.450;-2.516;2023-03-23T17:18:33;9.65;95.53
69776;DHT22;57049;51.450;-2.516;2023-03-23T17:20:59;9.55;95.63
69776;DHT22;57049;51.450;-2.516;2023-03-23T17:23:25;9.53;95.87
69776;DHT22;57049;51.450;-2.516;2023-03-23T17:25:50;9.49;96.44